首页
METAR-TAF:

METAR-TAF

机场 :

武汉天河国际机场

武汉, 中华人民共和国

纬度: 30-37N, 经度: 114-08E, 海拔: 23米

当前天气观测

该预报发布于1小时和12分钟前的05:00 UTC
风速6节,风向东转东北,在北转东北东南之间变化
温度 6°C
湿度 28%
气压 1034 hPa
能見度: 6000

METAR: ZHHH 120500Z 06003MPS 020V140 6000 NSC 06/M11 Q1034 NOSIG

时间: 14:12 (06:12 UTC)

预报

该预报发布于3小时和54分钟前的02:18 UTC
预报有效从12日的 06点(UTC)到 13日的 06点(UTC)
风速6节,风向东北
能見度: 3000
短暂存在
从 12日的 21点(UTC)到 13日的 01点(UTC)
能見度: 2500
轻雾

TAF: ZHHH 120218Z 1206/1306 04003MPS 3000 HZ NSC TX05/1207Z TNM01/22Z TEMPO 1221/1301 2500 BR

超过4000个机场的气象观测和天气预报(METAR&TAF报告)。

可查询的气象台以黄色和红色小点在地图上表示。

将鼠标移到小点上方,可查看气象台名称。

然后点击查看天气观测和预报。

如需切换地图:点击带黑十字的绿色按钮放大地图;点击带横线的绿色按钮缩小地图;或者点击绿色箭头查看邻近地区的地图。


METAR-TAF: